createdAt,value
2023-02-06T00:00:25.625Z,41.21
2023-02-06T00:01:25.621Z,44.10
2023-02-06T00:02:25.694Z,46.29
2023-02-06T00:03:25.585Z,46.57
2023-02-06T00:04:25.581Z,46.84
2023-02-06T00:05:25.590Z,44.24
2023-02-06T00:06:25.559Z,45.21
2023-02-06T00:07:25.587Z,47.51
2023-02-06T00:08:25.536Z,46.83
2023-02-06T00:09:25.541Z,47.50
2023-02-06T00:10:25.522Z,44.49
2023-02-06T00:11:25.514Z,46.23
2023-02-06T00:12:25.493Z,45.54
2023-02-06T00:13:25.487Z,47.10
2023-02-06T00:14:25.479Z,46.77
2023-02-06T00:15:25.472Z,45.81
2023-02-06T00:16:25.473Z,41.45
2023-02-06T00:17:25.450Z,42.51
2023-02-06T00:18:30.747Z,43.63
2023-02-06T00:19:26.469Z,43.85
2023-02-06T00:20:25.450Z,44.42
2023-02-06T00:21:25.509Z,44.95
2023-02-06T00:22:25.565Z,44.35
2023-02-06T00:23:25.479Z,46.49
2023-02-06T00:24:25.424Z,46.73
2023-02-06T00:25:25.442Z,46.23
2023-02-06T00:26:25.443Z,44.72
2023-02-06T00:27:25.440Z,44.88
2023-02-06T00:28:25.428Z,41.75
2023-02-06T00:29:25.430Z,43.23
2023-02-06T00:30:25.443Z,42.99
2023-02-06T00:31:25.481Z,44.58
2023-02-06T00:32:25.423Z,45.24
2023-02-06T00:33:25.410Z,41.45
2023-02-06T00:34:25.404Z,44.00
2023-02-06T00:35:25.396Z,40.77
2023-02-06T00:36:25.407Z,41.89
2023-02-06T00:37:25.395Z,44.10
2023-02-06T00:38:25.389Z,42.45
2023-02-06T00:39:25.385Z,35.86
2023-02-06T00:40:25.381Z,38.92
2023-02-06T00:41:25.383Z,41.04
2023-02-06T00:42:25.372Z,41.97
2023-02-06T00:43:25.361Z,43.59
2023-02-06T00:44:25.355Z,43.21
2023-02-06T00:45:25.351Z,40.76
2023-02-06T00:46:25.401Z,43.96
2023-02-06T00:47:25.344Z,44.98
2023-02-06T00:48:25.354Z,45.25
2023-02-06T00:49:25.326Z,45.20
2023-02-06T00:50:25.327Z,40.11
2023-02-06T00:51:25.337Z,39.28
2023-02-06T00:52:25.326Z,41.74
2023-02-06T00:53:25.319Z,43.31
2023-02-06T00:54:25.333Z,43.06
2023-02-06T00:55:25.314Z,44.39
2023-02-06T00:56:25.312Z,40.26
2023-02-06T00:57:25.308Z,42.55
2023-02-06T00:58:25.299Z,42.87
2023-02-06T00:59:25.296Z,42.35
2023-02-06T01:00:25.298Z,42.72
2023-02-06T01:01:25.314Z,42.57
2023-02-06T01:02:25.289Z,39.13
2023-02-06T01:03:25.275Z,40.99
2023-02-06T01:04:25.265Z,39.05
2023-02-06T01:05:25.248Z,42.41
2023-02-06T01:06:25.249Z,44.04
2023-02-06T01:07:25.247Z,40.16
2023-02-06T01:08:25.216Z,39.12
2023-02-06T01:09:25.218Z,40.98
2023-02-06T01:10:25.209Z,41.21
2023-02-06T01:11:25.228Z,40.89
2023-02-06T01:12:25.194Z,42.01
2023-02-06T01:13:25.175Z,37.98
2023-02-06T01:14:25.189Z,36.76
2023-02-06T01:15:25.162Z,39.77
2023-02-06T01:16:25.194Z,40.43
2023-02-06T01:17:25.134Z,44.11
2023-02-06T01:18:25.131Z,42.01
2023-02-06T01:19:25.131Z,40.48
2023-02-06T01:20:25.122Z,41.90
2023-02-06T01:21:25.124Z,41.54
2023-02-06T01:22:25.121Z,43.46
2023-02-06T01:23:25.104Z,43.90
2023-02-06T01:24:25.104Z,42.96
2023-02-06T01:25:25.103Z,41.41
2023-02-06T01:26:25.108Z,42.50
2023-02-06T01:27:25.108Z,40.57
2023-02-06T01:28:25.111Z,43.76
2023-02-06T01:29:25.112Z,43.82
2023-02-06T01:30:25.166Z,41.92
2023-02-06T01:31:25.193Z,40.96
2023-02-06T01:32:25.122Z,41.23
2023-02-06T01:33:25.112Z,40.17
2023-02-06T01:34:25.111Z,41.79
2023-02-06T01:35:25.092Z,44.32
2023-02-06T01:36:25.090Z,39.98
2023-02-06T01:37:25.085Z,40.89
2023-02-06T01:38:25.066Z,42.18
2023-02-06T01:39:25.174Z,42.05
2023-02-06T01:40:25.056Z,44.04
2023-02-06T01:41:25.080Z,43.45
2023-02-06T01:42:25.057Z,42.28
2023-02-06T01:43:25.019Z,42.48
2023-02-06T01:44:25.000Z,40.92
2023-02-06T01:45:24.990Z,43.05
2023-02-06T01:46:25.014Z,43.00
2023-02-06T01:47:24.991Z,43.87
2023-02-06T01:48:24.971Z,39.56
2023-02-06T01:49:24.971Z,43.40
2023-02-06T01:50:24.939Z,44.23
2023-02-06T01:51:24.938Z,42.84
2023-02-06T01:52:24.931Z,45.34
2023-02-06T01:53:24.930Z,43.02
2023-02-06T01:54:24.933Z,43.17
2023-02-06T01:55:24.920Z,45.43
2023-02-06T01:56:24.893Z,45.73
2023-02-06T01:57:24.884Z,45.85
2023-02-06T01:58:24.875Z,43.27
2023-02-06T01:59:24.868Z,43.43
2023-02-06T02:00:24.856Z,44.66
2023-02-06T02:01:24.840Z,42.02
2023-02-06T02:02:24.851Z,44.41
2023-02-06T02:03:24.833Z,45.02
2023-02-06T02:04:24.824Z,45.34
2023-02-06T02:05:24.834Z,38.89
2023-02-06T02:06:24.816Z,44.09
2023-02-06T02:07:24.833Z,43.93
2023-02-06T02:08:24.813Z,45.14
2023-02-06T02:09:24.809Z,43.69
2023-02-06T02:10:24.804Z,43.47
2023-02-06T02:11:24.857Z,43.26
2023-02-06T02:12:24.805Z,42.20
2023-02-06T02:13:24.825Z,45.17
2023-02-06T02:14:24.793Z,44.77
2023-02-06T02:15:24.783Z,47.16
2023-02-06T02:16:24.795Z,43.56
2023-02-06T02:17:24.763Z,43.75
2023-02-06T02:18:24.753Z,44.15
2023-02-06T02:19:24.753Z,43.60
2023-02-06T02:20:24.759Z,43.63
2023-02-06T02:21:24.743Z,45.59
2023-02-06T02:22:24.741Z,41.89
2023-02-06T02:23:24.745Z,43.37
2023-02-06T02:24:24.729Z,43.03
2023-02-06T02:25:24.729Z,46.18
2023-02-06T02:26:24.717Z,46.79
2023-02-06T02:27:24.723Z,44.70
2023-02-06T02:28:24.723Z,40.32
2023-02-06T02:29:24.720Z,43.84
2023-02-06T02:30:24.794Z,43.61
2023-02-06T02:31:24.737Z,44.04
2023-02-06T02:32:24.719Z,46.71
2023-02-06T02:33:24.738Z,43.78
2023-02-06T02:34:24.710Z,43.26
2023-02-06T02:35:24.712Z,46.10
2023-02-06T02:36:24.693Z,45.06
2023-02-06T02:37:24.683Z,43.77
2023-02-06T02:38:24.705Z,45.79
2023-02-06T02:39:24.696Z,42.23
2023-02-06T02:40:24.685Z,45.00
2023-02-06T02:41:24.677Z,42.02
2023-02-06T02:42:24.671Z,43.32
2023-02-06T02:43:24.679Z,44.24
2023-02-06T02:44:24.673Z,43.64
2023-02-06T02:45:24.693Z,38.40
2023-02-06T02:46:24.642Z,41.37
2023-02-06T02:47:24.636Z,43.19
2023-02-06T02:48:24.646Z,43.71
2023-02-06T02:49:24.618Z,43.19
2023-02-06T02:50:24.597Z,42.80
2023-02-06T02:51:24.588Z,41.00
2023-02-06T02:52:24.574Z,42.48
2023-02-06T02:53:24.567Z,43.06
2023-02-06T02:54:24.544Z,42.39
2023-02-06T02:55:24.526Z,44.97
2023-02-06T02:56:24.510Z,41.09
2023-02-06T02:57:24.492Z,41.27
2023-02-06T02:58:24.558Z,41.54
2023-02-06T02:59:24.469Z,41.34
2023-02-06T03:00:24.451Z,42.77
2023-02-06T03:01:24.429Z,42.81
2023-02-06T03:02:24.465Z,38.98
2023-02-06T03:03:24.422Z,43.28
2023-02-06T03:04:24.398Z,44.06
2023-02-06T03:05:24.414Z,46.93
2023-02-06T03:06:24.391Z,46.59
2023-02-06T03:07:24.370Z,45.31
2023-02-06T03:08:24.359Z,41.51
2023-02-06T03:09:24.341Z,43.47
2023-02-06T03:10:24.326Z,43.03
2023-02-06T03:11:24.334Z,43.53
2023-02-06T03:12:24.325Z,45.20
2023-02-06T03:13:24.336Z,41.74
2023-02-06T03:14:24.390Z,40.50
2023-02-06T03:15:24.321Z,43.01
2023-02-06T03:16:24.345Z,41.87
2023-02-06T03:17:24.275Z,45.18
2023-02-06T03:18:24.268Z,46.15
2023-02-06T03:19:24.243Z,42.90
2023-02-06T03:20:24.240Z,43.64
2023-02-06T03:21:24.223Z,44.37
2023-02-06T03:22:24.217Z,44.47
2023-02-06T03:23:24.210Z,46.95
2023-02-06T03:24:24.195Z,45.99
2023-02-06T03:25:24.179Z,41.03
2023-02-06T03:26:24.180Z,43.55
2023-02-06T03:27:24.163Z,43.02
2023-02-06T03:28:24.148Z,45.09
2023-02-06T03:29:24.129Z,46.14
2023-02-06T03:30:24.155Z,46.80
2023-02-06T03:31:24.131Z,44.23
2023-02-06T03:32:24.125Z,44.01
2023-02-06T03:33:24.086Z,42.46
2023-02-06T03:34:24.084Z,44.37
2023-02-06T03:35:24.059Z,47.52
2023-02-06T03:36:24.057Z,44.47
2023-02-06T03:37:24.061Z,42.52
2023-02-06T03:38:24.066Z,44.05
2023-02-06T03:39:24.052Z,45.24
2023-02-06T03:40:24.038Z,46.00
2023-02-06T03:41:24.044Z,46.07
2023-02-06T03:42:24.039Z,43.98
2023-02-06T03:43:24.040Z,44.00
2023-02-06T03:44:24.050Z,44.38
2023-02-06T03:45:24.058Z,43.47
2023-02-06T03:46:24.040Z,45.07
2023-02-06T03:47:24.048Z,45.59
2023-02-06T03:48:24.021Z,42.65
2023-02-06T03:49:24.024Z,43.42
2023-02-06T03:50:24.013Z,41.64
2023-02-06T03:51:24.004Z,42.44
2023-02-06T03:52:23.992Z,40.74
2023-02-06T03:53:23.989Z,41.17
2023-02-06T03:54:23.991Z,36.09
2023-02-06T03:55:23.982Z,35.00
2023-02-06T03:56:23.954Z,37.55
2023-02-06T03:57:23.969Z,38.90
2023-02-06T03:58:24.707Z,38.39
2023-02-06T03:59:23.939Z,38.71
2023-02-06T04:00:23.942Z,37.20
2023-02-06T04:01:24.023Z,34.89
2023-02-06T04:02:23.920Z,34.38
2023-02-06T04:03:23.917Z,34.42
2023-02-06T04:04:23.902Z,37.86
2023-02-06T04:05:23.884Z,37.93
2023-02-06T04:06:23.877Z,35.29
2023-02-06T04:07:23.899Z,35.72
2023-02-06T04:08:23.856Z,36.82
2023-02-06T04:09:23.855Z,35.91
2023-02-06T04:10:26.109Z,37.32
2023-02-06T04:11:23.869Z,39.78
2023-02-06T04:12:23.866Z,33.68
2023-02-06T04:13:23.862Z,34.89
2023-02-06T04:14:23.871Z,33.79
2023-02-06T04:15:23.843Z,35.82
2023-02-06T04:16:23.838Z,37.12
2023-02-06T04:17:40.522Z,36.22
2023-02-06T04:18:24.826Z,36.31
2023-02-06T04:19:23.814Z,34.03
2023-02-06T04:20:23.815Z,36.34
2023-02-06T04:21:23.821Z,37.30
2023-02-06T04:22:23.807Z,38.85
2023-02-06T04:23:23.801Z,40.10
2023-02-06T04:24:23.803Z,36.13
2023-02-06T04:25:23.797Z,34.20
2023-02-06T04:26:23.781Z,37.90
2023-02-06T04:27:23.773Z,38.48
2023-02-06T04:28:23.772Z,39.83
2023-02-06T04:29:23.776Z,39.37
2023-02-06T04:30:23.826Z,36.91
2023-02-06T04:31:23.819Z,34.99
2023-02-06T04:32:23.751Z,37.68
2023-02-06T04:33:23.754Z,37.82
2023-02-06T04:34:23.731Z,37.61
2023-02-06T04:35:23.721Z,39.57
2023-02-06T04:36:24.691Z,35.97
2023-02-06T04:37:23.709Z,36.58
2023-02-06T04:38:23.687Z,34.42
2023-02-06T04:39:23.694Z,38.03
2023-02-06T04:40:23.667Z,38.88
2023-02-06T04:41:23.666Z,42.23
2023-02-06T04:42:23.642Z,35.87
2023-02-06T04:43:23.638Z,35.36
2023-02-06T04:44:23.629Z,37.62
2023-02-06T04:45:44.618Z,37.47
2023-02-06T04:46:23.662Z,38.05
2023-02-06T04:47:23.611Z,39.50
2023-02-06T04:48:23.603Z,39.28
2023-02-06T04:49:23.577Z,41.80
2023-02-06T04:50:23.578Z,41.81
2023-02-06T04:51:23.582Z,40.82
2023-02-06T04:52:23.571Z,41.05
2023-02-06T04:53:23.544Z,39.38
2023-02-06T04:54:23.558Z,32.61
2023-02-06T04:55:23.549Z,39.05
2023-02-06T04:56:23.529Z,39.12
2023-02-06T04:57:23.513Z,39.12
2023-02-06T04:58:23.518Z,39.13
2023-02-06T04:59:23.657Z,40.20
2023-02-06T05:00:23.509Z,33.78
2023-02-06T05:01:23.522Z,39.10
2023-02-06T05:02:23.531Z,36.81
2023-02-06T05:03:23.455Z,39.92
2023-02-06T05:04:23.457Z,39.39
2023-02-06T05:05:23.461Z,38.15
2023-02-06T05:06:23.437Z,34.90
2023-02-06T05:07:23.456Z,37.95
2023-02-06T05:08:23.427Z,39.76
2023-02-06T05:09:23.434Z,37.86
2023-02-06T05:10:23.430Z,40.86
2023-02-06T05:11:23.423Z,37.03
2023-02-06T05:12:23.432Z,36.14
2023-02-06T05:13:23.428Z,36.53
2023-02-06T05:14:23.434Z,36.15
2023-02-06T05:15:23.434Z,39.99
2023-02-06T05:16:23.432Z,41.60
2023-02-06T05:17:23.419Z,39.20
2023-02-06T05:18:23.408Z,38.08
2023-02-06T05:19:23.398Z,35.36
2023-02-06T05:20:23.399Z,39.46
2023-02-06T05:21:23.385Z,39.27
2023-02-06T05:22:23.379Z,38.39
2023-02-06T05:23:23.384Z,32.81
2023-02-06T05:24:23.379Z,36.25
2023-02-06T05:25:23.386Z,37.03
2023-02-06T05:26:23.360Z,38.76
2023-02-06T05:27:23.353Z,38.76
2023-02-06T05:28:23.358Z,39.32
2023-02-06T05:29:23.351Z,28.14
2023-02-06T05:30:23.355Z,34.46
2023-02-06T05:31:23.442Z,34.51
2023-02-06T05:32:23.335Z,35.23
2023-02-06T05:33:23.337Z,36.38
2023-02-06T05:34:23.369Z,35.45
2023-02-06T05:35:23.337Z,34.12
2023-02-06T05:36:23.348Z,37.45
2023-02-06T05:37:23.328Z,35.78
2023-02-06T05:38:23.341Z,38.19
2023-02-06T05:39:23.320Z,37.86
2023-02-06T05:40:23.305Z,36.53
2023-02-06T05:41:23.318Z,32.88
2023-02-06T05:42:23.306Z,36.82
2023-02-06T05:43:23.315Z,35.45
2023-02-06T05:44:23.288Z,36.10
2023-02-06T05:45:23.314Z,35.97
2023-02-06T05:46:23.297Z,37.68
2023-02-06T05:47:23.275Z,34.59
2023-02-06T05:48:23.285Z,34.91
2023-02-06T05:49:23.277Z,34.51
2023-02-06T05:50:23.260Z,36.40
2023-02-06T05:51:23.251Z,36.45
2023-02-06T05:52:23.233Z,33.34
2023-02-06T05:53:23.280Z,32.96
2023-02-06T05:54:23.212Z,34.98
2023-02-06T05:55:23.196Z,36.06
2023-02-06T05:56:23.204Z,37.41
2023-02-06T05:57:23.193Z,38.90
2023-02-06T05:58:23.178Z,36.54
2023-02-06T05:59:23.152Z,32.76
2023-02-06T06:00:23.157Z,32.53
2023-02-06T06:01:23.151Z,35.11
2023-02-06T06:02:23.130Z,36.62
2023-02-06T06:03:23.121Z,37.54
2023-02-06T06:04:23.195Z,32.45
2023-02-06T06:05:23.095Z,35.07
2023-02-06T06:06:23.094Z,36.42
2023-02-06T06:07:23.075Z,36.21
2023-02-06T06:08:23.076Z,37.10
2023-02-06T06:09:23.044Z,37.02
2023-02-06T06:10:23.035Z,34.05
2023-02-06T06:11:23.021Z,35.46
2023-02-06T06:12:23.039Z,33.69
2023-02-06T06:13:23.117Z,34.42
2023-02-06T06:14:23.029Z,35.08
2023-02-06T06:15:23.935Z,36.71
2023-02-06T06:16:23.113Z,36.86
2023-02-06T06:17:22.998Z,40.23
2023-02-06T06:18:22.968Z,33.98
2023-02-06T06:19:22.959Z,37.84
2023-02-06T06:20:22.947Z,38.66
2023-02-06T06:21:22.936Z,38.82
2023-02-06T06:22:22.927Z,34.75
2023-02-06T06:23:22.919Z,36.49
2023-02-06T06:24:22.918Z,36.14
2023-02-06T06:25:22.904Z,38.05
2023-02-06T06:26:22.909Z,39.60
2023-02-06T06:27:22.893Z,36.28
2023-02-06T06:28:22.893Z,32.25
2023-02-06T06:29:22.880Z,37.16
2023-02-06T06:30:22.952Z,36.57
2023-02-06T06:31:22.990Z,37.82
2023-02-06T06:32:22.950Z,38.40
2023-02-06T06:33:22.917Z,33.18
2023-02-06T06:34:22.852Z,35.30
2023-02-06T06:35:22.805Z,30.42
2023-02-06T06:36:22.800Z,28.24
2023-02-06T06:37:22.783Z,35.86
2023-02-06T06:38:22.792Z,37.95
2023-02-06T06:39:22.746Z,41.31
2023-02-06T06:40:22.739Z,43.66
2023-02-06T06:41:22.741Z,44.56
2023-02-06T06:42:22.724Z,56.50
2023-02-06T06:43:22.705Z,61.48
2023-02-06T06:44:22.712Z,67.92
2023-02-06T06:45:22.712Z,77.76
2023-02-06T06:46:22.661Z,88.27
2023-02-06T06:47:22.649Z,103.93
2023-02-06T06:48:22.630Z,114.52
2023-02-06T06:49:22.617Z,123.45
2023-02-06T06:50:22.597Z,136.16
2023-02-06T06:51:22.590Z,148.67
2023-02-06T06:52:25.290Z,158.63
2023-02-06T06:53:22.556Z,159.18
2023-02-06T06:54:22.605Z,162.27
2023-02-06T06:55:22.510Z,168.13
2023-02-06T06:56:22.489Z,181.01
2023-02-06T06:57:22.512Z,199.64
2023-02-06T06:58:22.458Z,212.05
2023-02-06T06:59:22.431Z,215.69
2023-02-06T07:00:22.410Z,222.67
2023-02-06T07:01:22.437Z,226.39
2023-02-06T07:02:22.392Z,227.99
2023-02-06T07:03:22.362Z,233.41
2023-02-06T07:04:22.310Z,239.68
2023-02-06T07:05:22.312Z,241.84
2023-02-06T07:06:22.267Z,244.48
2023-02-06T07:07:22.313Z,249.96
2023-02-06T07:08:22.259Z,249.98
2023-02-06T07:09:22.212Z,248.91
2023-02-06T07:10:22.200Z,250.00
2023-02-06T07:11:22.182Z,250.00
2023-02-06T07:12:22.182Z,248.31
2023-02-06T07:13:22.141Z,247.19
2023-02-06T07:14:22.126Z,249.72
2023-02-06T07:15:22.136Z,249.17
2023-02-06T07:16:22.066Z,248.09
2023-02-06T07:17:22.053Z,250.00
2023-02-06T07:18:22.040Z,246.02
2023-02-06T07:19:21.985Z,249.46
2023-02-06T07:20:21.955Z,247.97
2023-02-06T07:21:21.936Z,248.27
2023-02-06T07:22:21.938Z,249.05
2023-02-06T07:23:21.921Z,251.74
2023-02-06T07:24:21.906Z,254.21
2023-02-06T07:25:21.852Z,256.89
2023-02-06T07:26:21.825Z,247.59
2023-02-06T07:27:21.796Z,250.00
2023-02-06T07:28:21.822Z,249.91
2023-02-06T07:29:21.737Z,249.73
2023-02-06T07:30:21.780Z,245.87
2023-02-06T07:31:21.793Z,248.28
2023-02-06T07:32:21.710Z,248.99
2023-02-06T07:33:21.650Z,250.00
2023-02-06T07:34:21.655Z,248.54
2023-02-06T07:35:21.616Z,247.55
2023-02-06T07:36:21.587Z,248.21
2023-02-06T07:37:21.548Z,249.18
2023-02-06T07:38:21.549Z,247.43
2023-02-06T07:39:21.511Z,249.31
2023-02-06T07:40:21.519Z,246.52
2023-02-06T07:41:21.474Z,247.86
2023-02-06T07:42:21.443Z,249.77
2023-02-06T07:43:21.481Z,249.37
2023-02-06T07:44:21.412Z,247.27
2023-02-06T07:45:21.398Z,246.08
2023-02-06T07:46:21.447Z,249.05
2023-02-06T07:47:21.319Z,235.54
2023-02-06T07:48:21.320Z,219.38
2023-02-06T07:49:21.264Z,206.17
2023-02-06T07:50:21.242Z,193.29
2023-02-06T07:51:21.220Z,186.16
2023-02-06T07:52:21.217Z,182.90
2023-02-06T07:53:21.201Z,165.81
2023-02-06T07:54:21.220Z,109.59
2023-02-06T07:55:21.196Z,73.19
2023-02-06T07:56:21.152Z,50.83
2023-02-06T07:57:21.141Z,47.26
2023-02-06T07:58:21.130Z,24.91
2023-02-06T07:59:21.129Z,32.16
2023-02-06T08:00:21.168Z,34.38
2023-02-06T08:01:21.152Z,47.62
2023-02-06T08:02:21.073Z,65.32
2023-02-06T08:03:21.139Z,85.10
2023-02-06T08:04:21.070Z,96.17
2023-02-06T08:05:21.017Z,99.64
2023-02-06T08:06:23.224Z,97.32
2023-02-06T08:07:21.072Z,98.85
2023-02-06T08:08:20.964Z,95.59
2023-02-06T08:09:20.947Z,93.69
2023-02-06T08:10:20.918Z,89.34
2023-02-06T08:11:20.912Z,83.58
2023-02-06T08:12:20.941Z,79.83
2023-02-06T08:13:20.892Z,71.25
2023-02-06T08:14:20.887Z,63.34
2023-02-06T08:15:20.861Z,62.08
2023-02-06T08:16:20.893Z,59.16
2023-02-06T08:17:20.829Z,54.04
2023-02-06T08:18:20.831Z,48.84
2023-02-06T08:19:20.958Z,47.16
2023-02-06T08:20:20.807Z,45.40
2023-02-06T08:21:20.799Z,44.75
2023-02-06T08:22:21.487Z,40.44
2023-02-06T08:23:20.928Z,34.51
2023-02-06T08:24:20.856Z,33.45
2023-02-06T08:25:20.752Z,30.65
2023-02-06T08:26:20.722Z,28.64
2023-02-06T08:27:20.729Z,26.39
2023-02-06T08:28:20.766Z,26.68
2023-02-06T08:29:20.747Z,25.86
2023-02-06T08:30:20.746Z,27.78
2023-02-06T08:31:20.790Z,26.52
2023-02-06T08:32:20.635Z,29.65
2023-02-06T08:33:20.629Z,26.96
2023-02-06T08:34:20.603Z,25.00
2023-02-06T08:35:20.574Z,26.96
2023-02-06T08:36:20.574Z,26.55
2023-02-06T08:37:20.547Z,26.10
2023-02-06T08:38:20.513Z,25.24
2023-02-06T08:39:20.515Z,26.92
2023-02-06T08:40:20.474Z,26.80
2023-02-06T08:41:20.465Z,29.13
2023-02-06T08:42:20.542Z,35.48
2023-02-06T08:43:20.481Z,51.69
2023-02-06T08:44:20.411Z,26.70
2023-02-06T08:45:20.588Z,32.46
2023-02-06T08:46:20.401Z,24.24
2023-02-06T08:47:20.387Z,31.19
2023-02-06T08:48:20.328Z,33.10
2023-02-06T08:49:20.595Z,24.93
2023-02-06T08:50:20.319Z,41.85
2023-02-06T08:51:20.267Z,53.19
2023-02-06T08:52:20.262Z,51.95
2023-02-06T08:53:20.231Z,57.84
2023-02-06T08:54:20.191Z,69.32
2023-02-06T08:55:20.170Z,76.44
2023-02-06T08:56:21.152Z,76.76
2023-02-06T08:57:20.126Z,78.15
2023-02-06T08:58:20.092Z,81.65
2023-02-06T08:59:20.079Z,90.32
2023-02-06T09:00:20.057Z,102.29
2023-02-06T09:01:20.070Z,107.87
2023-02-06T09:02:20.074Z,107.93
2023-02-06T09:03:19.969Z,108.21
2023-02-06T09:04:19.957Z,109.64
2023-02-06T09:05:19.917Z,114.40
2023-02-06T09:06:19.905Z,119.95
2023-02-06T09:07:19.977Z,120.83
2023-02-06T09:08:19.843Z,126.51
2023-02-06T09:09:19.809Z,124.72
2023-02-06T09:10:27.517Z,128.99
2023-02-06T09:11:20.753Z,129.18
2023-02-06T09:12:19.736Z,130.14
2023-02-06T09:13:19.715Z,132.50
2023-02-06T09:14:19.675Z,135.93
2023-02-06T09:15:19.645Z,142.64
2023-02-06T09:16:19.665Z,146.06
2023-02-06T09:17:19.600Z,147.86
2023-02-06T09:18:19.577Z,149.83
2023-02-06T09:19:19.581Z,151.61
2023-02-06T09:20:19.516Z,152.97
2023-02-06T09:21:19.593Z,155.76
2023-02-06T09:22:19.447Z,158.16
2023-02-06T09:23:19.489Z,158.30
2023-02-06T09:24:19.442Z,159.60
2023-02-06T09:25:19.419Z,162.07
2023-02-06T09:26:19.350Z,165.48
2023-02-06T09:27:19.323Z,166.29
2023-02-06T09:28:19.332Z,167.18
2023-02-06T09:29:19.279Z,168.13
2023-02-06T09:30:19.258Z,152.72
2023-02-06T09:31:19.265Z,136.08
2023-02-06T09:32:19.186Z,127.93
2023-02-06T09:33:19.170Z,133.12
2023-02-06T09:34:19.154Z,134.49
2023-02-06T09:35:19.112Z,131.42
2023-02-06T09:36:19.084Z,101.64
2023-02-06T09:37:19.061Z,54.10
2023-02-06T09:38:19.029Z,50.79
2023-02-06T09:39:19.028Z,59.52
2023-02-06T09:40:19.005Z,66.63
2023-02-06T09:41:18.992Z,75.56
2023-02-06T09:42:19.011Z,84.02
2023-02-06T09:43:18.989Z,89.99
2023-02-06T09:44:18.934Z,95.01
2023-02-06T09:45:18.920Z,103.95
2023-02-06T09:46:19.020Z,109.37
2023-02-06T09:47:18.861Z,110.37
2023-02-06T09:48:18.844Z,114.21
2023-02-06T09:49:18.825Z,118.06
2023-02-06T09:50:18.821Z,119.22
2023-02-06T09:51:18.788Z,121.70
2023-02-06T09:52:18.768Z,125.12
2023-02-06T09:53:18.740Z,127.26
2023-02-06T09:54:18.728Z,130.53
2023-02-06T09:55:18.731Z,133.80
2023-02-06T09:56:18.739Z,133.10
2023-02-06T09:57:18.682Z,130.21
2023-02-06T09:58:18.669Z,132.98
2023-02-06T09:59:18.650Z,133.92
2023-02-06T10:00:18.719Z,134.90
2023-02-06T10:01:18.880Z,135.71
2023-02-06T10:02:18.618Z,135.93
2023-02-06T10:03:18.610Z,136.46
2023-02-06T10:04:18.617Z,137.87
2023-02-06T10:05:18.600Z,141.02
2023-02-06T10:06:18.562Z,145.51
2023-02-06T10:07:18.554Z,148.73
2023-02-06T10:08:18.529Z,150.50
2023-02-06T10:09:18.544Z,149.80
2023-02-06T10:10:18.509Z,152.29
2023-02-06T10:11:18.679Z,153.22
2023-02-06T10:12:18.455Z,156.35
2023-02-06T10:13:18.436Z,156.90
2023-02-06T10:14:18.439Z,157.02
2023-02-06T10:15:18.412Z,157.32
2023-02-06T10:16:18.616Z,157.65
2023-02-06T10:17:18.411Z,157.70
2023-02-06T10:18:18.358Z,160.07
2023-02-06T10:19:18.364Z,162.21
2023-02-06T10:20:18.462Z,162.24
2023-02-06T10:21:18.329Z,162.51
2023-02-06T10:22:18.331Z,163.12
2023-02-06T10:23:18.308Z,165.03
2023-02-06T10:24:18.348Z,164.09
2023-02-06T10:25:18.268Z,162.92
2023-02-06T10:26:18.323Z,164.96
2023-02-06T10:27:18.302Z,165.83
2023-02-06T10:28:18.217Z,167.31
2023-02-06T10:29:18.210Z,166.28
2023-02-06T10:30:18.325Z,168.50
2023-02-06T10:31:18.246Z,168.59
2023-02-06T10:32:18.169Z,169.05
2023-02-06T10:33:25.324Z,168.94
2023-02-06T10:34:19.154Z,168.63
2023-02-06T10:35:18.122Z,168.73
2023-02-06T10:36:18.092Z,169.08
2023-02-06T10:37:18.074Z,167.80
2023-02-06T10:38:18.061Z,161.81
2023-02-06T10:39:18.034Z,160.80
2023-02-06T10:40:18.028Z,152.37
2023-02-06T10:41:17.994Z,151.12
2023-02-06T10:42:17.982Z,147.45
2023-02-06T10:43:17.948Z,143.64
2023-02-06T10:44:17.945Z,140.96
2023-02-06T10:45:22.080Z,143.04
2023-02-06T10:46:17.916Z,143.15
2023-02-06T10:47:17.888Z,143.30
2023-02-06T10:48:17.834Z,143.48
2023-02-06T10:49:17.888Z,146.79
2023-02-06T10:50:17.820Z,155.27
2023-02-06T10:51:17.844Z,157.44
2023-02-06T10:52:17.869Z,163.02
2023-02-06T10:53:17.737Z,166.96
2023-02-06T10:54:17.720Z,172.44
2023-02-06T10:55:17.717Z,173.77
2023-02-06T10:56:17.676Z,173.65
2023-02-06T10:57:17.677Z,176.23
2023-02-06T10:58:17.648Z,175.42
2023-02-06T10:59:17.701Z,180.40
2023-02-06T11:00:17.587Z,182.20
2023-02-06T11:01:26.044Z,184.72
2023-02-06T11:02:18.647Z,184.85
2023-02-06T11:03:17.520Z,185.04
2023-02-06T11:04:17.539Z,185.01
2023-02-06T11:05:17.493Z,185.94
2023-02-06T11:06:17.488Z,187.69
2023-02-06T11:07:17.454Z,189.89
2023-02-06T11:08:17.457Z,193.41
2023-02-06T11:09:17.436Z,195.69
2023-02-06T11:10:17.391Z,195.30
2023-02-06T11:11:17.364Z,195.49
2023-02-06T11:12:17.330Z,196.04
2023-02-06T11:13:17.294Z,195.58
2023-02-06T11:14:17.293Z,196.37
2023-02-06T11:15:17.262Z,197.79
2023-02-06T11:16:17.254Z,199.71
2023-02-06T11:17:17.220Z,201.45
2023-02-06T11:18:17.202Z,203.60
2023-02-06T11:19:17.173Z,202.79
2023-02-06T11:20:17.142Z,202.88
2023-02-06T11:21:17.136Z,203.76
2023-02-06T11:22:17.105Z,203.41
2023-02-06T11:23:17.081Z,202.49
2023-02-06T11:24:17.080Z,201.70
2023-02-06T11:25:17.013Z,202.61
2023-02-06T11:26:17.003Z,202.69
2023-02-06T11:27:16.980Z,201.99
2023-02-06T11:28:16.968Z,205.30
2023-02-06T11:29:16.918Z,212.71
2023-02-06T11:30:16.921Z,222.79
2023-02-06T11:31:16.873Z,228.74
2023-02-06T11:32:16.848Z,231.30
2023-02-06T11:33:16.818Z,274.59
2023-02-06T11:34:16.782Z,248.28
2023-02-06T11:35:16.748Z,244.09
2023-02-06T11:36:16.750Z,242.85
2023-02-06T11:37:16.684Z,237.57
2023-02-06T11:38:16.656Z,233.31
2023-02-06T11:39:16.645Z,228.60
2023-02-06T11:40:16.650Z,223.86
2023-02-06T11:41:16.553Z,217.11
2023-02-06T11:42:16.523Z,214.98
2023-02-06T11:43:16.502Z,215.04
2023-02-06T11:44:16.456Z,212.20
2023-02-06T11:45:16.489Z,212.39
2023-02-06T11:46:16.411Z,209.25
2023-02-06T11:47:16.360Z,205.12
2023-02-06T11:48:16.325Z,198.64
2023-02-06T11:49:16.294Z,185.12
2023-02-06T11:50:16.259Z,183.10
2023-02-06T11:51:16.239Z,179.87
2023-02-06T11:52:16.231Z,171.86
2023-02-06T11:53:16.194Z,162.24
2023-02-06T11:54:16.171Z,156.83
2023-02-06T11:55:16.192Z,157.33
2023-02-06T11:56:16.129Z,161.03
2023-02-06T11:57:16.101Z,167.20
2023-02-06T11:58:16.073Z,173.67
2023-02-06T11:59:16.041Z,179.09
2023-02-06T12:00:16.018Z,180.56
2023-02-06T12:01:16.013Z,180.61
2023-02-06T12:02:16.009Z,181.45
2023-02-06T12:03:16.099Z,174.30
2023-02-06T12:04:16.045Z,176.46
2023-02-06T12:05:15.938Z,175.93
2023-02-06T12:06:15.910Z,174.17
2023-02-06T12:07:15.842Z,173.08
2023-02-06T12:08:15.811Z,158.99
2023-02-06T12:09:15.786Z,156.55
2023-02-06T12:10:15.780Z,160.14
2023-02-06T12:11:15.733Z,154.89
2023-02-06T12:12:15.712Z,156.50
2023-02-06T12:13:15.698Z,156.18
2023-02-06T12:14:15.676Z,150.49
2023-02-06T12:15:39.967Z,156.03
2023-02-06T12:17:15.629Z,156.13
2023-02-06T12:18:15.594Z,153.99
2023-02-06T12:19:15.574Z,156.55
2023-02-06T12:20:15.540Z,158.45
2023-02-06T12:21:15.533Z,154.72
2023-02-06T12:22:15.558Z,155.89
2023-02-06T12:23:15.463Z,155.07
2023-02-06T12:24:15.442Z,156.66
2023-02-06T12:25:15.436Z,156.77
2023-02-06T12:26:15.400Z,156.71
2023-02-06T12:27:15.378Z,155.42
2023-02-06T12:28:15.394Z,156.10
2023-02-06T12:29:15.340Z,156.80
2023-02-06T12:30:15.311Z,156.98
2023-02-06T12:31:15.378Z,155.83
2023-02-06T12:32:15.270Z,155.29
2023-02-06T12:33:15.254Z,154.07
2023-02-06T12:34:15.239Z,154.93
2023-02-06T12:35:15.209Z,155.01
2023-02-06T12:36:15.188Z,154.00
2023-02-06T12:37:15.200Z,152.68
2023-02-06T12:38:15.144Z,152.59
2023-02-06T12:39:17.319Z,152.20
2023-02-06T12:40:15.142Z,150.76
2023-02-06T12:41:15.120Z,153.70
2023-02-06T12:42:15.094Z,152.27
2023-02-06T12:43:15.079Z,152.11
2023-02-06T12:44:15.050Z,152.04